sensor_id;sensor_type;location;lat;lon;timestamp;pressure;altitude;pressure_sealevel;temperature;humidity
73952;BME280;62304;47.662;18.324;2023-01-19T00:00:31;98667.25;;;5.75;93.97
73952;BME280;62304;47.662;18.324;2023-01-19T00:03:34;98672.22;;;5.62;94.59
73952;BME280;62304;47.662;18.324;2023-01-19T00:06:38;98667.16;;;5.64;94.21
73952;BME280;62304;47.662;18.324;2023-01-19T00:09:42;98671.47;;;5.62;94.92
73952;BME280;62304;47.662;18.324;2023-01-19T00:12:44;98680.16;;;5.71;94.35
73952;BME280;62304;47.662;18.324;2023-01-19T00:15:48;98670.72;;;5.68;94.49
73952;BME280;62304;47.662;18.324;2023-01-19T00:18:51;98669.22;;;5.78;94.19
73952;BME280;62304;47.662;18.324;2023-01-19T00:21:55;98664.47;;;5.71;94.06
73952;BME280;62304;47.662;18.324;2023-01-19T00:24:57;98658.47;;;5.62;94.19
73952;BME280;62304;47.662;18.324;2023-01-19T00:28:01;98673.78;;;5.60;94.22
73952;BME280;62304;47.662;18.324;2023-01-19T00:31:04;98676.66;;;5.70;94.25
73952;BME280;62304;47.662;18.324;2023-01-19T00:34:07;98671.91;;;5.71;94.25
73952;BME280;62304;47.662;18.324;2023-01-19T00:37:10;98676.66;;;5.70;94.05
73952;BME280;62304;47.662;18.324;2023-01-19T00:40:14;98680.47;;;5.62;94.02
73952;BME280;62304;47.662;18.324;2023-01-19T00:43:17;98680.41;;;5.55;94.66
73952;BME280;62304;47.662;18.324;2023-01-19T00:46:20;98687.09;;;5.54;94.46
73952;BME280;62304;47.662;18.324;2023-01-19T00:49:28;98680.28;;;5.45;94.71
73952;BME280;62304;47.662;18.324;2023-01-19T00:52:32;98682.59;;;5.39;94.70
73952;BME280;62304;47.662;18.324;2023-01-19T00:55:34;98678.28;;;5.38;95.00
73952;BME280;62304;47.662;18.324;2023-01-19T00:58:38;98673.50;;;5.35;94.82
73952;BME280;62304;47.662;18.324;2023-01-19T01:01:40;98678.94;;;5.28;95.22
73952;BME280;62304;47.662;18.324;2023-01-19T01:04:47;98687.88;;;5.22;95.10
73952;BME280;62304;47.662;18.324;2023-01-19T01:07:56;98686.34;;;5.24;95.07
73952;BME280;62304;47.662;18.324;2023-01-19T01:11:00;98709.44;;;5.16;94.91
73952;BME280;62304;47.662;18.324;2023-01-19T01:14:03;98695.91;;;5.01;95.30
73952;BME280;62304;47.662;18.324;2023-01-19T01:17:07;98700.22;;;5.02;95.61
73952;BME280;62304;47.662;18.324;2023-01-19T01:20:17;98709.94;;;4.96;96.21
73952;BME280;62304;47.662;18.324;2023-01-19T01:23:20;98713.91;;;4.98;96.13
73952;BME280;62304;47.662;18.324;2023-01-19T01:26:24;98720.25;;;5.06;95.86
73952;BME280;62304;47.662;18.324;2023-01-19T01:29:29;98725.75;;;5.06;95.72
73952;BME280;62304;47.662;18.324;2023-01-19T01:32:32;98726.16;;;5.04;95.01
73952;BME280;62304;47.662;18.324;2023-01-19T01:35:35;98734.94;;;4.87;94.94
73952;BME280;62304;47.662;18.324;2023-01-19T01:38:39;98726.34;;;4.92;94.83
73952;BME280;62304;47.662;18.324;2023-01-19T01:41:42;98732.22;;;4.87;95.11
73952;BME280;62304;47.662;18.324;2023-01-19T01:47:54;98744.59;;;4.78;95.49
73952;BME280;62304;47.662;18.324;2023-01-19T01:51:08;98745.09;;;4.83;95.44
73952;BME280;62304;47.662;18.324;2023-01-19T01:54:30;98747.06;;;4.86;95.48
73952;BME280;62304;47.662;18.324;2023-01-19T01:57:41;98743.47;;;4.79;96.09
73952;BME280;62304;47.662;18.324;2023-01-19T02:00:45;98739.91;;;4.78;96.25
73952;BME280;62304;47.662;18.324;2023-01-19T02:04:07;98749.81;;;4.86;95.96
73952;BME280;62304;47.662;18.324;2023-01-19T02:07:13;98753.09;;;4.95;95.58
73952;BME280;62304;47.662;18.324;2023-01-19T02:10:39;98772.59;;;4.87;95.40
73952;BME280;62304;47.662;18.324;2023-01-19T02:14:05;98779.88;;;5.02;95.00
73952;BME280;62304;47.662;18.324;2023-01-19T02:17:08;98790.50;;;5.03;95.02
73952;BME280;62304;47.662;18.324;2023-01-19T02:20:12;98787.28;;;4.98;94.90
73952;BME280;62304;47.662;18.324;2023-01-19T02:26:36;98784.84;;;4.93;94.90
73952;BME280;62304;47.662;18.324;2023-01-19T02:29:41;98755.56;;;5.04;94.44
73952;BME280;62304;47.662;18.324;2023-01-19T02:32:44;98732.00;;;5.03;94.20
73952;BME280;62304;47.662;18.324;2023-01-19T02:35:49;98753.75;;;4.85;94.42
73952;BME280;62304;47.662;18.324;2023-01-19T02:38:57;98778.41;;;4.82;94.46
73952;BME280;62304;47.662;18.324;2023-01-19T02:42:08;98774.50;;;4.83;94.38
73952;BME280;62304;47.662;18.324;2023-01-19T02:45:13;98757.06;;;4.72;94.52
73952;BME280;62304;47.662;18.324;2023-01-19T02:48:19;98762.81;;;4.63;94.47
73952;BME280;62304;47.662;18.324;2023-01-19T02:51:23;98792.56;;;4.58;94.47
73952;BME280;62304;47.662;18.324;2023-01-19T03:01:59;98825.44;;;4.32;94.11
73952;BME280;62304;47.662;18.324;2023-01-19T03:11:30;98805.69;;;4.00;93.54
73952;BME280;62304;47.662;18.324;2023-01-19T03:14:41;98805.28;;;3.79;93.92
73952;BME280;62304;47.662;18.324;2023-01-19T03:17:48;98808.88;;;3.64;94.18
73952;BME280;62304;47.662;18.324;2023-01-19T03:20:55;98808.12;;;3.64;94.03
73952;BME280;62304;47.662;18.324;2023-01-19T03:24:02;98814.88;;;3.51;93.96
73952;BME280;62304;47.662;18.324;2023-01-19T03:27:13;98824.06;;;3.39;94.22
73952;BME280;62304;47.662;18.324;2023-01-19T03:30:22;98812.91;;;3.32;94.07
73952;BME280;62304;47.662;18.324;2023-01-19T03:33:30;98819.75;;;3.23;94.23
73952;BME280;62304;47.662;18.324;2023-01-19T03:36:37;98808.75;;;3.19;94.35
73952;BME280;62304;47.662;18.324;2023-01-19T03:39:43;98797.97;;;3.11;94.57
73952;BME280;62304;47.662;18.324;2023-01-19T03:42:47;98775.56;;;3.05;94.55
73952;BME280;62304;47.662;18.324;2023-01-19T03:45:52;98775.34;;;2.95;94.93
73952;BME280;62304;47.662;18.324;2023-01-19T03:48:57;98771.63;;;2.87;95.21
73952;BME280;62304;47.662;18.324;2023-01-19T03:52:01;98772.94;;;2.93;95.41
73952;BME280;62304;47.662;18.324;2023-01-19T03:55:04;98784.84;;;3.01;95.14
73952;BME280;62304;47.662;18.324;2023-01-19T03:58:08;98777.88;;;3.03;95.37
73952;BME280;62304;47.662;18.324;2023-01-19T04:01:13;98781.03;;;3.05;95.18
73952;BME280;62304;47.662;18.324;2023-01-19T04:04:16;98796.97;;;3.19;95.31
73952;BME280;62304;47.662;18.324;2023-01-19T04:07:19;98823.47;;;3.30;94.87
73952;BME280;62304;47.662;18.324;2023-01-19T04:10:23;98822.81;;;3.37;94.17
73952;BME280;62304;47.662;18.324;2023-01-19T04:13:26;98824.06;;;3.39;94.20
73952;BME280;62304;47.662;18.324;2023-01-19T04:16:31;98823.97;;;3.36;94.24
73952;BME280;62304;47.662;18.324;2023-01-19T04:19:34;98805.09;;;3.31;94.48
73952;BME280;62304;47.662;18.324;2023-01-19T04:22:37;98797.06;;;3.22;94.75
73952;BME280;62304;47.662;18.324;2023-01-19T04:25:41;98798.66;;;3.23;94.78
73952;BME280;62304;47.662;18.324;2023-01-19T04:28:44;98808.88;;;3.26;94.78
73952;BME280;62304;47.662;18.324;2023-01-19T04:31:47;98820.72;;;3.30;95.04
73952;BME280;62304;47.662;18.324;2023-01-19T04:34:50;98803.72;;;3.40;94.96
73952;BME280;62304;47.662;18.324;2023-01-19T04:37:53;98797.50;;;3.43;95.09
73952;BME280;62304;47.662;18.324;2023-01-19T04:40:56;98791.25;;;3.43;95.07
73952;BME280;62304;47.662;18.324;2023-01-19T04:43:59;98799.94;;;3.48;95.11
73952;BME280;62304;47.662;18.324;2023-01-19T04:47:02;98786.53;;;3.43;95.31
73952;BME280;62304;47.662;18.324;2023-01-19T04:50:06;98774.94;;;3.50;95.20
73952;BME280;62304;47.662;18.324;2023-01-19T04:53:10;98757.38;;;3.54;95.57
73952;BME280;62304;47.662;18.324;2023-01-19T04:56:15;98764.53;;;3.59;95.50
73952;BME280;62304;47.662;18.324;2023-01-19T04:59:18;98750.16;;;3.65;95.50
73952;BME280;62304;47.662;18.324;2023-01-19T05:02:22;98763.44;;;3.63;95.61
73952;BME280;62304;47.662;18.324;2023-01-19T05:05:26;98774.84;;;3.65;95.44
73952;BME280;62304;47.662;18.324;2023-01-19T05:08:29;98791.72;;;3.67;95.74
73952;BME280;62304;47.662;18.324;2023-01-19T05:11:32;98805.44;;;3.67;95.64
73952;BME280;62304;47.662;18.324;2023-01-19T05:14:35;98802.81;;;3.74;96.37
73952;BME280;62304;47.662;18.324;2023-01-19T05:17:38;98806.84;;;3.80;95.95
73952;BME280;62304;47.662;18.324;2023-01-19T05:20:41;98820.09;;;3.75;96.14
73952;BME280;62304;47.662;18.324;2023-01-19T05:23:45;98821.59;;;3.72;96.32
73952;BME280;62304;47.662;18.324;2023-01-19T05:26:48;98842.78;;;3.75;96.61
73952;BME280;62304;47.662;18.324;2023-01-19T05:29:51;98856.66;;;3.63;97.09
73952;BME280;62304;47.662;18.324;2023-01-19T05:32:54;98864.06;;;3.63;96.87
73952;BME280;62304;47.662;18.324;2023-01-19T05:35:57;98858.09;;;3.57;96.93
73952;BME280;62304;47.662;18.324;2023-01-19T05:39:00;98843.03;;;3.48;96.81
73952;BME280;62304;47.662;18.324;2023-01-19T05:42:03;98851.06;;;3.41;96.44
73952;BME280;62304;47.662;18.324;2023-01-19T05:45:07;98836.59;;;3.40;96.23
73952;BME280;62304;47.662;18.324;2023-01-19T05:48:10;98844.00;;;3.40;96.05
73952;BME280;62304;47.662;18.324;2023-01-19T05:51:13;98845.44;;;3.34;95.79
73952;BME280;62304;47.662;18.324;2023-01-19T05:54:16;98840.78;;;3.34;95.62
73952;BME280;62304;47.662;18.324;2023-01-19T05:57:21;98843.78;;;3.29;95.65
73952;BME280;62304;47.662;18.324;2023-01-19T06:00:24;98826.28;;;3.34;95.19
73952;BME280;62304;47.662;18.324;2023-01-19T06:03:29;98850.44;;;3.28;95.28
73952;BME280;62304;47.662;18.324;2023-01-19T06:06:32;98820.72;;;3.30;95.14
73952;BME280;62304;47.662;18.324;2023-01-19T06:09:35;98815.94;;;3.27;94.97
73952;BME280;62304;47.662;18.324;2023-01-19T06:12:38;98827.41;;;3.14;95.28
73952;BME280;62304;47.662;18.324;2023-01-19T06:15:44;98797.28;;;3.14;95.21
73952;BME280;62304;47.662;18.324;2023-01-19T06:18:46;98800.03;;;3.14;94.98
73952;BME280;62304;47.662;18.324;2023-01-19T06:21:50;98789.13;;;3.17;95.23
73952;BME280;62304;47.662;18.324;2023-01-19T06:24:53;98777.31;;;3.13;95.00
73952;BME280;62304;47.662;18.324;2023-01-19T06:27:56;98800.94;;;3.02;95.00
73952;BME280;62304;47.662;18.324;2023-01-19T06:30:59;98798.03;;;2.95;95.26
73952;BME280;62304;47.662;18.324;2023-01-19T06:34:03;98814.00;;;2.93;95.23
73952;BME280;62304;47.662;18.324;2023-01-19T06:37:06;98850.16;;;2.83;95.35
73952;BME280;62304;47.662;18.324;2023-01-19T06:40:09;98871.97;;;2.80;95.36
73952;BME280;62304;47.662;18.324;2023-01-19T06:43:15;98859.53;;;2.82;95.57
73952;BME280;62304;47.662;18.324;2023-01-19T06:46:18;98876.84;;;2.86;95.25
73952;BME280;62304;47.662;18.324;2023-01-19T06:49:21;98872.78;;;2.80;95.48
73952;BME280;62304;47.662;18.324;2023-01-19T06:52:24;98855.56;;;2.80;95.43
73952;BME280;62304;47.662;18.324;2023-01-19T06:55:27;98853.81;;;2.72;95.57
73952;BME280;62304;47.662;18.324;2023-01-19T06:58:30;98855.81;;;2.75;95.45
73952;BME280;62304;47.662;18.324;2023-01-19T07:01:33;98843.94;;;2.67;95.73
73952;BME280;62304;47.662;18.324;2023-01-19T07:04:36;98859.88;;;2.65;95.79
73952;BME280;62304;47.662;18.324;2023-01-19T07:07:40;98842.69;;;2.65;95.95
73952;BME280;62304;47.662;18.324;2023-01-19T07:10:45;98837.56;;;2.63;96.07
73952;BME280;62304;47.662;18.324;2023-01-19T07:14:07;98823.88;;;2.63;96.09
73952;BME280;62304;47.662;18.324;2023-01-19T07:17:11;98802.06;;;2.67;96.25
73952;BME280;62304;47.662;18.324;2023-01-19T07:20:14;98825.53;;;2.68;96.17
73952;BME280;62304;47.662;18.324;2023-01-19T07:23:19;98844.34;;;2.69;96.11
73952;BME280;62304;47.662;18.324;2023-01-19T07:26:22;98856.88;;;2.70;96.08
73952;BME280;62304;47.662;18.324;2023-01-19T07:29:27;98851.41;;;2.70;96.21
73952;BME280;62304;47.662;18.324;2023-01-19T07:32:30;98856.19;;;2.73;96.41
73952;BME280;62304;47.662;18.324;2023-01-19T07:35:33;98860.88;;;2.73;96.26
73952;BME280;62304;47.662;18.324;2023-01-19T07:38:36;98855.13;;;2.78;96.01
73952;BME280;62304;47.662;18.324;2023-01-19T07:41:39;98871.13;;;2.76;96.12
73952;BME280;62304;47.662;18.324;2023-01-19T07:44:42;98865.25;;;2.77;96.03
73952;BME280;62304;47.662;18.324;2023-01-19T07:47:47;98871.97;;;2.80;95.95
73952;BME280;62304;47.662;18.324;2023-01-19T07:50:58;98855.56;;;2.80;95.80
73952;BME280;62304;47.662;18.324;2023-01-19T07:54:02;98860.88;;;2.73;95.74
73952;BME280;62304;47.662;18.324;2023-01-19T07:57:05;98874.97;;;2.75;95.39
73952;BME280;62304;47.662;18.324;2023-01-19T08:00:08;98876.59;;;2.76;95.18
73952;BME280;62304;47.662;18.324;2023-01-19T08:03:13;98864.03;;;2.75;94.95
73952;BME280;62304;47.662;18.324;2023-01-19T08:06:23;98877.38;;;2.76;94.61
73952;BME280;62304;47.662;18.324;2023-01-19T08:09:27;98869.41;;;2.71;94.46
73952;BME280;62304;47.662;18.324;2023-01-19T08:12:30;98878.09;;;2.73;94.15
73952;BME280;62304;47.662;18.324;2023-01-19T08:15:33;98886.72;;;2.75;94.09
73952;BME280;62304;47.662;18.324;2023-01-19T08:18:36;98877.44;;;2.80;93.93
73952;BME280;62304;47.662;18.324;2023-01-19T08:21:39;98860.59;;;2.78;93.73
73952;BME280;62304;47.662;18.324;2023-01-19T08:24:43;98863.41;;;2.81;93.57
73952;BME280;62304;47.662;18.324;2023-01-19T08:27:45;98862.25;;;2.82;93.49
73952;BME280;62304;47.662;18.324;2023-01-19T08:30:49;98859.91;;;2.81;93.33
73952;BME280;62304;47.662;18.324;2023-01-19T08:33:57;98862.25;;;2.82;92.86
73952;BME280;62304;47.662;18.324;2023-01-19T08:37:01;98856.44;;;2.84;93.04
73952;BME280;62304;47.662;18.324;2023-01-19T08:40:04;98879.22;;;2.88;92.88
73952;BME280;62304;47.662;18.324;2023-01-19T08:43:11;98880.47;;;2.90;92.61
73952;BME280;62304;47.662;18.324;2023-01-19T08:46:15;98880.00;;;2.88;92.67
73952;BME280;62304;47.662;18.324;2023-01-19T08:49:19;98893.25;;;2.86;92.69
73952;BME280;62304;47.662;18.324;2023-01-19T08:52:22;98899.16;;;2.88;92.55
73952;BME280;62304;47.662;18.324;2023-01-19T08:55:28;98901.91;;;2.88;92.61
73952;BME280;62304;47.662;18.324;2023-01-19T08:58:31;98909.00;;;2.89;92.59
73952;BME280;62304;47.662;18.324;2023-01-19T09:01:35;98908.19;;;2.89;92.88
73952;BME280;62304;47.662;18.324;2023-01-19T09:04:39;98907.75;;;2.87;92.85
73952;BME280;62304;47.662;18.324;2023-01-19T09:07:43;98904.22;;;2.86;92.68
73952;BME280;62304;47.662;18.324;2023-01-19T09:10:49;98913.94;;;2.84;92.67
73952;BME280;62304;47.662;18.324;2023-01-19T09:13:53;98902.63;;;2.85;92.69
73952;BME280;62304;47.662;18.324;2023-01-19T09:16:56;98885.66;;;2.80;92.87
73952;BME280;62304;47.662;18.324;2023-01-19T09:19:59;98887.63;;;2.79;92.95
73952;BME280;62304;47.662;18.324;2023-01-19T09:23:02;98894.53;;;2.73;93.00
73952;BME280;62304;47.662;18.324;2023-01-19T09:26:06;98911.63;;;2.70;92.82
73952;BME280;62304;47.662;18.324;2023-01-19T09:29:09;98920.56;;;2.67;92.99
73952;BME280;62304;47.662;18.324;2023-01-19T09:32:12;98909.88;;;2.62;93.14
73952;BME280;62304;47.662;18.324;2023-01-19T09:35:16;98905.81;;;2.56;93.14
73952;BME280;62304;47.662;18.324;2023-01-19T09:38:19;98911.53;;;2.51;93.12
73952;BME280;62304;47.662;18.324;2023-01-19T09:41:23;98921.69;;;2.51;93.76
73952;BME280;62304;47.662;18.324;2023-01-19T09:44:32;98913.03;;;2.49;93.49
73952;BME280;62304;47.662;18.324;2023-01-19T09:47:35;98919.22;;;2.46;93.71
73952;BME280;62304;47.662;18.324;2023-01-19T09:50:41;98912.97;;;2.45;93.82
73952;BME280;62304;47.662;18.324;2023-01-19T09:57:17;98920.69;;;2.43;94.09
73952;BME280;62304;47.662;18.324;2023-01-19T10:00:21;98901.91;;;2.42;93.90
73952;BME280;62304;47.662;18.324;2023-01-19T10:03:26;98896.06;;;2.43;94.18
73952;BME280;62304;47.662;18.324;2023-01-19T10:06:29;98889.19;;;2.49;94.13
73952;BME280;62304;47.662;18.324;2023-01-19T10:09:47;98889.19;;;2.49;93.89
73952;BME280;62304;47.662;18.324;2023-01-19T10:13:51;98886.91;;;2.51;94.04
73952;BME280;62304;47.662;18.324;2023-01-19T10:18:02;98891.16;;;2.49;94.11
73952;BME280;62304;47.662;18.324;2023-01-19T10:20:49;98890.69;;;2.47;94.24
73952;BME280;62304;47.662;18.324;2023-01-19T10:23:57;98904.94;;;2.52;93.96
73952;BME280;62304;47.662;18.324;2023-01-19T10:27:02;98898.47;;;2.45;93.62
73952;BME280;62304;47.662;18.324;2023-01-19T10:30:21;98905.88;;;2.44;94.38
73952;BME280;62304;47.662;18.324;2023-01-19T10:33:32;98908.25;;;2.46;94.05
73952;BME280;62304;47.662;18.324;2023-01-19T10:36:38;98903.69;;;2.50;93.97
73952;BME280;62304;47.662;18.324;2023-01-19T10:39:50;98906.34;;;2.46;94.09
73952;BME280;62304;47.662;18.324;2023-01-19T10:42:55;98905.19;;;2.47;94.46
73952;BME280;62304;47.662;18.324;2023-01-19T10:45:59;98905.19;;;2.47;94.18
73952;BME280;62304;47.662;18.324;2023-01-19T10:49:03;98899.38;;;2.49;94.36
73952;BME280;62304;47.662;18.324;2023-01-19T10:52:16;98893.91;;;2.49;94.46
73952;BME280;62304;47.662;18.324;2023-01-19T10:55:39;98900.53;;;2.48;94.37
73952;BME280;62304;47.662;18.324;2023-01-19T10:58:42;98906.34;;;2.46;94.68
73952;BME280;62304;47.662;18.324;2023-01-19T11:02:02;98913.03;;;2.49;94.79
73952;BME280;62304;47.662;18.324;2023-01-19T11:05:23;98917.28;;;2.46;94.89
73952;BME280;62304;47.662;18.324;2023-01-19T11:08:29;98926.25;;;2.47;95.02
73952;BME280;62304;47.662;18.324;2023-01-19T11:11:41;98926.25;;;2.47;95.16
73952;BME280;62304;47.662;18.324;2023-01-19T11:14:46;98932.19;;;2.49;95.06
73952;BME280;62304;47.662;18.324;2023-01-19T11:17:49;98932.09;;;2.45;95.11
73952;BME280;62304;47.662;18.324;2023-01-19T11:20:56;98930.62;;;2.48;95.51
73952;BME280;62304;47.662;18.324;2023-01-19T11:24:01;98932.63;;;2.51;95.18
73952;BME280;62304;47.662;18.324;2023-01-19T11:27:07;98943.56;;;2.51;95.39
73952;BME280;62304;47.662;18.324;2023-01-19T11:30:19;98945.25;;;2.55;95.25
73952;BME280;62304;47.662;18.324;2023-01-19T11:33:25;98942.63;;;2.59;95.20
73952;BME280;62304;47.662;18.324;2023-01-19T11:36:34;98939.19;;;2.62;95.03
73952;BME280;62304;47.662;18.324;2023-01-19T11:39:52;98936.09;;;2.63;95.30
73952;BME280;62304;47.662;18.324;2023-01-19T11:42:56;98934.94;;;2.64;95.21
73952;BME280;62304;47.662;18.324;2023-01-19T11:46:01;98937.59;;;2.61;95.33
73952;BME280;62304;47.662;18.324;2023-01-19T11:49:10;98938.12;;;2.66;95.47
73952;BME280;62304;47.662;18.324;2023-01-19T11:52:34;98940.84;;;2.66;95.59
73952;BME280;62304;47.662;18.324;2023-01-19T11:55:55;98937.06;;;2.71;95.29
73952;BME280;62304;47.662;18.324;2023-01-19T11:58:58;98948.47;;;2.73;95.04
73952;BME280;62304;47.662;18.324;2023-01-19T12:02:41;98960.22;;;2.73;95.20
73952;BME280;62304;47.662;18.324;2023-01-19T12:05:43;98961.62;;;2.67;95.20
73952;BME280;62304;47.662;18.324;2023-01-19T12:09:03;98958.41;;;2.65;95.00
73952;BME280;62304;47.662;18.324;2023-01-19T12:15:31;98970.97;;;2.66;95.17
73952;BME280;62304;47.662;18.324;2023-01-19T12:19:33;98970.53;;;2.64;95.04
73952;BME280;62304;47.662;18.324;2023-01-19T12:22:13;98985.69;;;2.62;95.42
73952;BME280;62304;47.662;18.324;2023-01-19T12:25:24;98986.31;;;2.55;95.59
73952;BME280;62304;47.662;18.324;2023-01-19T12:28:35;99003.69;;;2.47;95.64
73952;BME280;62304;47.662;18.324;2023-01-19T12:31:40;99008.97;;;2.40;95.66
73952;BME280;62304;47.662;18.324;2023-01-19T12:34:48;99017.53;;;2.39;95.60
73952;BME280;62304;47.662;18.324;2023-01-19T12:37:53;99016.72;;;2.38;95.92
73952;BME280;62304;47.662;18.324;2023-01-19T12:41:19;99011.63;;;2.37;95.75
73952;BME280;62304;47.662;18.324;2023-01-19T12:44:24;99018.66;;;2.38;95.93
73952;BME280;62304;47.662;18.324;2023-01-19T12:47:29;99020.84;;;2.32;96.22
73952;BME280;62304;47.662;18.324;2023-01-19T12:50:36;99032.03;;;2.27;96.55
73952;BME280;62304;47.662;18.324;2023-01-19T12:53:55;99030.44;;;2.26;96.89
73952;BME280;62304;47.662;18.324;2023-01-19T12:57:16;99040.47;;;2.22;97.11
73952;BME280;62304;47.662;18.324;2023-01-19T13:09:51;99049.63;;;2.14;97.31
73952;BME280;62304;47.662;18.324;2023-01-19T13:13:15;99060.00;;;2.09;97.37
73952;BME280;62304;47.662;18.324;2023-01-19T13:19:31;99071.97;;;2.04;97.58
73952;BME280;62304;47.662;18.324;2023-01-19T13:25:58;99089.78;;;1.98;97.83
73952;BME280;62304;47.662;18.324;2023-01-19T13:29:09;99096.38;;;1.97;98.10
73952;BME280;62304;47.662;18.324;2023-01-19T13:32:16;99095.94;;;1.95;98.40
73952;BME280;62304;47.662;18.324;2023-01-19T13:35:23;99088.31;;;1.89;98.57
73952;BME280;62304;47.662;18.324;2023-01-19T13:38:26;99097.19;;;1.86;98.59
73952;BME280;62304;47.662;18.324;2023-01-19T13:41:35;99098.22;;;1.81;98.63
73952;BME280;62304;47.662;18.324;2023-01-19T13:44:47;99113.69;;;1.77;98.82
73952;BME280;62304;47.662;18.324;2023-01-19T13:47:56;99126.91;;;1.75;98.81
73952;BME280;62304;47.662;18.324;2023-01-19T13:51:05;99127.97;;;1.71;99.02
73952;BME280;62304;47.662;18.324;2023-01-19T13:54:14;99122.00;;;1.69;99.21
73952;BME280;62304;47.662;18.324;2023-01-19T13:57:29;99126.81;;;1.72;99.04
73952;BME280;62304;47.662;18.324;2023-01-19T14:00:32;99133.75;;;1.69;99.47
73952;BME280;62304;47.662;18.324;2023-01-19T14:03:39;99134.19;;;1.71;99.36
73952;BME280;62304;47.662;18.324;2023-01-19T14:06:45;99147.53;;;1.73;99.24
73952;BME280;62304;47.662;18.324;2023-01-19T14:10:04;99148.69;;;1.72;99.50
73952;BME280;62304;47.662;18.324;2023-01-19T14:13:20;99158.12;;;1.74;99.46
73952;BME280;62304;47.662;18.324;2023-01-19T14:16:24;99153.00;;;1.73;99.46
73952;BME280;62304;47.662;18.324;2023-01-19T14:19:27;99152.66;;;1.74;99.34
73952;BME280;62304;47.662;18.324;2023-01-19T14:25:43;99159.72;;;1.75;99.84
73952;BME280;62304;47.662;18.324;2023-01-19T14:28:46;99153.66;;;1.70;99.87
73952;BME280;62304;47.662;18.324;2023-01-19T14:38:12;99147.87;;;1.71;99.73
73952;BME280;62304;47.662;18.324;2023-01-19T14:44:39;99155.72;;;1.73;99.64
73952;BME280;62304;47.662;18.324;2023-01-19T14:47:43;99178.25;;;1.70;99.76
73952;BME280;62304;47.662;18.324;2023-01-19T14:50:48;99182.94;;;1.69;99.81
73952;BME280;62304;47.662;18.324;2023-01-19T14:54:10;99181.59;;;1.75;99.85
73952;BME280;62304;47.662;18.324;2023-01-19T14:57:16;99201.50;;;1.76;99.78
73952;BME280;62304;47.662;18.324;2023-01-19T15:00:20;99203.44;;;1.75;99.64
73952;BME280;62304;47.662;18.324;2023-01-19T15:03:25;99211.97;;;1.74;99.81
73952;BME280;62304;47.662;18.324;2023-01-19T15:06:45;99200.28;;;1.73;99.75
73952;BME280;62304;47.662;18.324;2023-01-19T15:09:48;99197.06;;;1.71;99.94
73952;BME280;62304;47.662;18.324;2023-01-19T15:12:53;99188.75;;;1.68;99.92
73952;BME280;62304;47.662;18.324;2023-01-19T15:15:56;99183.50;;;1.63;100.00
73952;BME280;62304;47.662;18.324;2023-01-19T15:19:00;99191.38;;;1.64;100.00
73952;BME280;62304;47.662;18.324;2023-01-19T15:22:10;99214.00;;;1.65;99.87
73952;BME280;62304;47.662;18.324;2023-01-19T15:25:18;99239.41;;;1.65;99.94
73952;BME280;62304;47.662;18.324;2023-01-19T15:28:21;99253.06;;;1.65;100.00
73952;BME280;62304;47.662;18.324;2023-01-19T15:31:25;99242.97;;;1.66;100.00
73952;BME280;62304;47.662;18.324;2023-01-19T15:34:28;99236.34;;;1.67;99.97
73952;BME280;62304;47.662;18.324;2023-01-19T15:37:31;99228.94;;;1.67;99.78
73952;BME280;62304;47.662;18.324;2023-01-19T15:40:34;99225.75;;;1.65;99.64
73952;BME280;62304;47.662;18.324;2023-01-19T15:43:37;99238.16;;;1.63;99.54
73952;BME280;62304;47.662;18.324;2023-01-19T15:46:40;99236.78;;;1.69;99.42
73952;BME280;62304;47.662;18.324;2023-01-19T15:49:43;99245.00;;;1.69;99.26
73952;BME280;62304;47.662;18.324;2023-01-19T15:52:46;99249.47;;;1.73;99.16
73952;BME280;62304;47.662;18.324;2023-01-19T15:55:50;99249.00;;;1.71;98.90
73952;BME280;62304;47.662;18.324;2023-01-19T15:58:54;99272.00;;;1.70;98.98
73952;BME280;62304;47.662;18.324;2023-01-19T16:01:58;99279.53;;;1.73;98.75
73952;BME280;62304;47.662;18.324;2023-01-19T16:05:02;99286.69;;;1.66;98.95
73952;BME280;62304;47.662;18.324;2023-01-19T16:08:05;99290.75;;;1.60;99.23
73952;BME280;62304;47.662;18.324;2023-01-19T16:11:14;99297.50;;;1.62;99.08
73952;BME280;62304;47.662;18.324;2023-01-19T16:14:17;99305.09;;;1.57;99.23
73952;BME280;62304;47.662;18.324;2023-01-19T16:17:20;99326.28;;;1.60;98.98
73952;BME280;62304;47.662;18.324;2023-01-19T16:20:23;99321.56;;;1.48;99.19
73952;BME280;62304;47.662;18.324;2023-01-19T16:23:26;99331.16;;;1.54;98.92
73952;BME280;62304;47.662;18.324;2023-01-19T16:26:31;99345.50;;;1.51;99.04
73952;BME280;62304;47.662;18.324;2023-01-19T16:29:36;99355.16;;;1.49;99.07
73952;BME280;62304;47.662;18.324;2023-01-19T16:32:39;99366.63;;;1.42;99.11
73952;BME280;62304;47.662;18.324;2023-01-19T16:35:42;99371.62;;;1.40;99.17
73952;BME280;62304;47.662;18.324;2023-01-19T16:38:45;99371.62;;;1.40;99.02
73952;BME280;62304;47.662;18.324;2023-01-19T16:41:49;99368.87;;;1.40;99.01
73952;BME280;62304;47.662;18.324;2023-01-19T16:44:52;99393.31;;;1.37;99.12
73952;BME280;62304;47.662;18.324;2023-01-19T16:47:56;99400.09;;;1.31;99.34
73952;BME280;62304;47.662;18.324;2023-01-19T16:51:05;99408.09;;;1.36;99.15
73952;BME280;62304;47.662;18.324;2023-01-19T16:54:27;99410.72;;;1.32;99.17
73952;BME280;62304;47.662;18.324;2023-01-19T16:57:30;99414.56;;;1.31;99.29
73952;BME280;62304;47.662;18.324;2023-01-19T17:00:35;99414.56;;;1.31;99.18
73952;BME280;62304;47.662;18.324;2023-01-19T17:03:40;99420.03;;;1.31;99.10
73952;BME280;62304;47.662;18.324;2023-01-19T17:06:45;99411.38;;;1.29;99.25
73952;BME280;62304;47.662;18.324;2023-01-19T17:09:48;99412.63;;;1.32;99.07
73952;BME280;62304;47.662;18.324;2023-01-19T17:12:52;99415.72;;;1.30;98.96
73952;BME280;62304;47.662;18.324;2023-01-19T17:16:00;99414.37;;;1.36;98.78
73952;BME280;62304;47.662;18.324;2023-01-19T17:19:05;99403.47;;;1.36;98.78
73952;BME280;62304;47.662;18.324;2023-01-19T17:22:09;99401.88;;;1.35;98.60